CheckWX is a tool to help pilots better visualize weather data.  It is not intended as a substitute for an official pre-flight weather briefing.

06:03:36 UTC

CWSA METAR
Sable Island Airport
Canada
Current

1 hour ago

CWSA 250500Z AUTO 23015KT 4SM BR FEW220 02/00 A2992 RMK SLP132
Observed
Mar-25 @ 05:00 UTC
Wind
  • 230° at 15 KTS
Visibility
4 SM
Flight Rules
MVFR
Conditions
Mist
Cloud Levels
  • Few at 22,000' AGL
Temperature
C / 36°F
Dewpoint
C / 32°F
Humidity
87%
Altimeter
29.92" Hg
Pressure
1013.2 hPa
Previous

2 hours ago

CWSA 250400Z AUTO 24016KT 4SM BR CLR 02/00 A2992 RMK SLP134
Observed
Mar-25 @ 04:00 UTC
Wind
  • 240° at 16 KTS
Visibility
4 SM
Flight Rules
MVFR
Conditions
Mist
Cloud Levels
  • Clear skies
Temperature
C / 36°F
Dewpoint
C / 32°F
Humidity
87%
Altimeter
29.92" Hg
Pressure
1013.4 hPa
Previous

3 hours ago

CWSA 250300Z AUTO 24015KT 4SM BR BKN200 OVC220 02/00 A2990 RMK SLP128
Observed
Mar-25 @ 03:00 UTC
Wind
  • 240° at 15 KTS
Visibility
4 SM
Flight Rules
MVFR
Conditions
Mist
Cloud Levels
  • Broken at 20,000' AGL
  • Overcast at 22,000' AGL
Temperature
C / 36°F
Dewpoint
C / 32°F
Humidity
87%
Altimeter
29.9" Hg
Pressure
1012.8 hPa